Data for 03/25/2014

Time Sea-Level Adjusted Pressure Absolute Pressure Temperature Relative Humidity Dew Point   
(mb) (inHg) (mb) (inHg) (C) (F) (%) (C) (F)
00:05 1021 30.15 851 25.13 -3.9 25 76 -7.6 18.4
00:10 1021 30.15 850 25.1 -3.9 25 76 -7.5 18.5
00:15 1021 30.15 850 25.1 -4 24.9 77 -7.5 18.6
00:20 1021 30.15 850 25.1 -4.1 24.6 77 -7.5 18.5
00:25 1021 30.15 850 25.1 -4.3 24.3 78 -7.6 18.4
00:30 1021 30.15 850 25.1 -4.5 23.9 79 -7.6 18.3
00:35 1021 30.15 850 25.1 -4.5 23.8 79 -7.7 18.2
00:40 1021 30.15 850 25.1 -4.5 23.8 79 -7.6 18.3
00:45 1021 30.15 850 25.1 -4.6 23.7 79 -7.7 18.1
00:50 1021 30.15 850 25.1 -4.6 23.8 79 -7.7 18.2
00:55 1021 30.15 850 25.1 -4.6 23.7 80 -7.6 18.3
01:00 1021 30.15 850 25.1 -4.7 23.5 80 -7.7 18.1
01:05 1021 30.15 850 25.1 -4.7 23.5 79 -7.8 18
01:10 1020 30.12 850 25.1 -4.7 23.5 79 -7.8 18
01:15 1020 30.12 850 25.1 -4.8 23.3 79 -7.8 17.9
01:20 1020 30.12 850 25.1 -4.8 23.3 79 -7.9 17.8
01:25 1020 30.12 850 25.1 -4.8 23.3 79 -7.9 17.7
01:30 1020 30.12 850 25.1 -4.8 23.3 80 -7.9 17.8
01:35 1020 30.12 850 25.1 -5 23.1 81 -7.8 18
01:40 1020 30.12 850 25.1 -5 22.9 81 -7.8 17.9
01:45 1020 30.12 850 25.1 -5.1 22.9 80 -8 17.7
01:50 1020 30.12 850 25.1 -5 22.9 80 -8 17.7
01:55 1020 30.12 850 25.1 -5.1 22.8 81 -7.9 17.7
02:00 1020 30.12 850 25.1 -5.2 22.7 81 -8 17.6
02:05 1020 30.12 849 25.07 -5.3 22.5 81 -8.1 17.5
02:10 1020 30.12 849 25.07 -5.4 22.3 82 -8 17.5
02:15 1020 30.12 849 25.07 -5.5 22.1 82 -8.1 17.5
02:20 1020 30.12 849 25.07 -5.5 22.1 82 -8.1 17.5
02:25 1020 30.12 849 25.07 -5.5 22.1 82 -8.1 17.3
02:30 1020 30.12 849 25.07 -5.5 22.1 82 -8.2 17.3
02:35 1019 30.09 849 25.07 -5.5 22 82 -8.2 17.2
02:40 1019 30.09 849 25.07 -5.6 21.9 82 -8.2 17.2
02:45 1019 30.09 849 25.07 -5.6 21.9 82 -8.2 17.2
02:50 1019 30.09 849 25.07 -5.6 21.9 82 -8.2 17.2
02:55 1019 30.09 848 25.04 -5.6 21.9 82 -8.3 17.1
03:00 1019 30.09 848 25.04 -5.6 21.9 82 -8.3 17.1
03:05 1019 30.09 848 25.04 -5.7 21.8 82 -8.3 17
03:10 1019 30.09 848 25.04 -5.8 21.7 82 -8.3 17.1
03:15 1019 30.09 848 25.04 -5.8 21.6 82 -8.4 17
03:20 1019 30.09 848 25.04 -5.8 21.6 83 -8.3 17
03:25 1019 30.09 848 25.04 -5.8 21.5 82 -8.4 16.9
03:30 1019 30.09 848 25.04 -5.8 21.5 82 -8.4 16.9
03:35 1019 30.09 848 25.04 -5.8 21.6 82 -8.4 16.9
03:40 1018 30.06 848 25.04 -5.8 21.6 82 -8.4 16.9
03:45 1018 30.06 847 25.01 -5.8 21.5 82 -8.4 16.9
03:50 1018 30.06 847 25.01 -5.8 21.5 82 -8.4 16.9
03:55 1018 30.06 847 25.01 -5.9 21.5 82 -8.4 16.9
04:00 1018 30.06 847 25.01 -5.8 21.6 82 -8.5 16.8
04:05 1018 30.06 847 25.01 -5.7 21.8 81 -8.5 16.8
04:10 1018 30.06 847 25.01 -5.6 21.8 81 -8.4 16.9
04:15 1018 30.06 847 25.01 -5.7 21.8 81 -8.5 16.7
04:20 1018 30.06 847 25.01 -5.7 21.8 81 -8.5 16.7
04:25 1018 30.06 847 25.01 -5.7 21.8 81 -8.5 16.8
04:30 1018 30.06 847 25.01 -5.6 21.8 81 -8.5 16.7
04:35 1018 30.06 847 25.01 -5.6 22 80 -8.5 16.7
04:40 1018 30.06 847 25.01 -5.6 22 80 -8.5 16.7
04:45 1018 30.06 847 25.01 -5.5 22 80 -8.5 16.7
04:50 1018 30.06 847 25.01 -5.5 22.1 79 -8.5 16.7
04:55 1018 30.06 847 25.01 -5.5 22.1 79 -8.5 16.6
05:00 1018 30.06 847 25.01 -5.5 22.1 79 -8.6 16.5
05:05 1018 30.06 847 25.01 -5.4 22.3 79 -8.6 16.6
05:10 1018 30.06 847 25.01 -5.4 22.2 78 -8.6 16.5
05:15 1018 30.06 847 25.01 -5.5 22.1 79 -8.6 16.6
05:20 1018 30.06 847 25.01 -5.5 22.1 79 -8.6 16.5
05:25 1018 30.06 847 25.01 -5.5 22.1 79 -8.7 16.4
05:30 1018 30.06 847 25.01 -5.5 22.1 79 -8.7 16.4
05:35 1018 30.06 847 25.01 -5.6 22 79 -8.6 16.5
05:40 1018 30.06 847 25.01 -5.6 21.8 79 -8.7 16.4
05:45 1018 30.06 847 25.01 -5.6 21.9 79 -8.7 16.4
05:50 1018 30.06 847 25.01 -5.6 21.9 79 -8.7 16.4
05:55 1018 30.06 847 25.01 -5.8 21.6 80 -8.8 16.2
06:00 1018 30.06 847 25.01 -5.9 21.3 81 -8.7 16.4
06:05 1018 30.06 847 25.01 -6 21.1 82 -8.7 16.3
06:10 1017 30.03 847 25.01 -6.2 20.9 82 -8.7 16.3
06:15 1017 30.03 846 24.98 -6.2 20.8 82 -8.8 16.2
06:20 1017 30.03 846 24.98 -6.2 20.8 83 -8.7 16.3
06:25 1017 30.03 846 24.98 -6.2 20.8 82 -8.7 16.3
06:30 1017 30.03 846 24.98 -6.3 20.6 83 -8.8 16.2
06:35 1017 30.03 846 24.98 -6.3 20.6 83 -8.8 16.1
06:40 1017 30.03 846 24.98 -6 21.1 81 -8.7 16.3
06:45 1017 30.03 846 24.98 -5.9 21.3 81 -8.7 16.4
06:50 1017 30.03 846 24.98 -5.9 21.3 81 -8.6 16.4
06:55 1017 30.03 846 24.98 -5.8 21.5 80 -8.7 16.4
07:00 1017 30.03 846 24.98 -5.8 21.5 80 -8.8 16.2
07:05 1017 30.03 846 24.98 -5.8 21.6 79 -8.9 16.1
07:10 1017 30.03 846 24.98 -5.6 21.9 78 -8.8 16.2
07:15 1017 30.03 846 24.98 -5.4 22.3 77 -8.7 16.3
07:20 1016 30 846 24.98 -5.3 22.5 77 -8.7 16.4
07:25 1016 30 846 24.98 -5.1 22.8 77 -8.5 16.6
07:30 1016 30 846 24.98 -5 23 77 -8.5 16.7
07:35 1016 30 846 24.98 -5 23 76 -8.5 16.6
07:40 1016 30 845 24.95 -4.8 23.3 75 -8.5 16.6
07:45 1016 30 845 24.95 -4.6 23.7 75 -8.4 16.8
07:50 1016 30 845 24.95 -4.3 24.2 74 -8.3 17.1
07:55 1016 30 845 24.95 -4 24.8 74 -8 17.5
08:00 1016 30 845 24.95 -3.7 25.3 72 -8 17.6
08:05 1016 30 845 24.95 -3.4 25.9 71 -8 17.7
08:10 1016 30 845 24.95 -3.2 26.2 71 -7.8 18
08:15 1016 30 845 24.95 -3.1 26.5 68 -8.1 17.4
08:20 1016 30 845 24.95 -3 26.6 69 -7.9 17.7
08:25 1016 30 845 24.95 -2.7 27.2 69 -7.7 18.1
08:30 1016 30 845 24.95 -2.4 27.7 67 -7.7 18.1
08:35 1016 30 845 24.95 -2.2 28.1 66 -7.8 18
08:40 1016 30 845 24.95 -1.7 28.9 64 -7.7 18.2
08:45 1016 30 845 24.95 -1.7 29 64 -7.5 18.4
08:50 1016 30 845 24.95 -1.7 28.9 65 -7.6 18.4
08:55 1016 30 845 24.95 -1.6 29.2 63 -7.6 18.3
09:00 1016 30 845 24.95 -1.4 29.5 63 -7.5 18.5
09:05 1015 29.97 845 24.95 -1 30.3 62 -7.3 18.8
09:10 1015 29.97 845 24.95 -0.1 31.8 58 -7.5 18.5
09:15 1015 29.97 845 24.95 -0.2 31.7 60 -7.1 19.3
09:20 1015 29.97 844 24.92 0.1 32.2 59 -7.1 19.2
09:25 1015 29.97 844 24.92 0.5 33 57 -7 19.3
09:30 1015 29.97 844 24.92 1 33.8 54 -7.3 18.9
09:35 1015 29.97 844 24.92 1 33.7 54 -7.3 18.8
09:40 1015 29.97 844 24.92 1.2 34.2 54 -7 19.4
09:45 1015 29.97 844 24.92 1.6 34.9 53 -6.9 19.6
09:50 1015 29.97 844 24.92 1.7 35 52 -7.1 19.2
09:55 1015 29.97 844 24.92 1.5 34.6 54 -6.8 19.7
10:00 1014 29.94 844 24.92 1.4 34.4 54 -6.9 19.6
10:05 1014 29.94 844 24.92 1.7 35.1 56 -6 21.2
10:10 1014 29.94 844 24.92 1.8 35.3 55 -6.3 20.7
10:15 1014 29.94 843 24.89 2.1 35.8 55 -6.1 21
10:20 1014 29.94 843 24.89 1.9 35.4 54 -6.4 20.4
10:25 1014 29.94 843 24.89 2.2 35.9 53 -6.4 20.6
10:30 1014 29.94 843 24.89 2.6 36.8 51 -6.4 20.4
10:35 1014 29.94 843 24.89 2.5 36.5 53 -6.1 21
10:40 1014 29.94 843 24.89 3.5 38.3 47 -6.8 19.8
10:45 1014 29.94 843 24.89 4.4 39.9 46 -6.2 20.8
10:50 1014 29.94 843 24.89 4.5 40.1 47 -5.9 21.4
10:55 1013 29.91 843 24.89 4.9 40.8 45 -6 21.2
11:00 1013 29.91 843 24.89 5.3 41.6 44 -5.8 21.5
11:05 1013 29.91 842 24.86 5.4 41.7 44 -5.9 21.3
11:10 1013 29.91 842 24.86 5.1 41.1 46 -5.8 21.6
11:15 1013 29.91 842 24.86 5.2 41.3 45 -5.9 21.3
11:20 1013 29.91 842 24.86 5 41 45 -6.1 21
11:25 1013 29.91 842 24.86 5.7 42.3 44 -5.6 21.8
11:30 1013 29.91 842 24.86 5.6 42 45 -5.5 22.1
11:35 1013 29.91 842 24.86 5.1 41.1 47 -5.4 22.3
11:40 1012 29.88 842 24.86 4.7 40.4 45 -6.2 20.8
11:45 1012 29.88 842 24.86 5.9 42.6 42 -6 21.2
11:50 1012 29.88 841 24.83 5.7 42.2 42 -6.3 20.7
11:55 1012 29.88 841 24.83 6.1 42.9 40 -6.7 20
12:00 1012 29.88 841 24.83 7 44.6 37 -6.7 19.9
12:05 1012 29.88 841 24.83 8 46.4 34 -7.1 19.2
12:10 1012 29.88 841 24.83 8.2 46.8 38 -5.2 22.7
12:15 1012 29.88 841 24.83 6.8 44.2 44 -4.6 23.8
12:20 1011 29.85 841 24.83 6 42.7 45 -5 22.9
12:25 1011 29.85 841 24.83 5.8 42.4 46 -5.1 22.9
12:30 1011 29.85 840 24.81 6.1 43 44 -5.3 22.5
12:35 1011 29.85 840 24.81 6.1 43 44 -5.2 22.6
12:40 1011 29.85 840 24.81 6.6 43.8 42 -5.4 22.2
12:45 1011 29.85 840 24.81 6.5 43.7 43 -5.2 22.7
12:50 1011 29.85 840 24.81 7.2 44.9 42 -4.9 23.3
12:55 1011 29.85 840 24.81 7.6 45.8 41 -4.8 23.3
13:00 1011 29.85 840 24.81 7.5 45.5 42 -4.6 23.8
13:05 1010 29.83 840 24.81 7.5 45.5 42 -4.6 23.7
13:10 1010 29.83 840 24.81 7.7 45.9 41 -4.8 23.4
13:15 1010 29.83 839 24.78 7.8 46 40 -5 23
13:20 1010 29.83 839 24.78 8.6 47.4 39 -4.6 23.7
13:25 1010 29.83 839 24.78 8.3 47 39 -4.9 23.3
13:30 1010 29.83 839 24.78 8.1 46.6 39 -4.9 23.3
13:35 1010 29.83 839 24.78 8.8 47.8 36 -5.5 22.2
13:40 1010 29.83 839 24.78 8.9 47.9 37 -5 23.1
13:45 1010 29.83 839 24.78 9.1 48.4 34 -5.7 21.7
13:50 1009 29.8 839 24.78 9.9 49.8 34 -5.4 22.3
13:55 1009 29.8 839 24.78 9.6 49.3 33 -5.8 21.5
14:00 1009 29.8 839 24.78 9.9 49.8 33 -5.6 21.9
14:05 1009 29.8 838 24.75 10.8 51.5 30 -5.9 21.3
14:10 1009 29.8 838 24.75 11.8 53.3 29 -5.8 21.5
14:15 1009 29.8 838 24.75 11.7 53 30 -5.1 22.7
14:20 1009 29.8 838 24.75 12.2 53.9 29 -5.2 22.7
14:25 1009 29.8 838 24.75 12.5 54.4 28 -5.4 22.3
14:30 1009 29.8 838 24.75 13 55.4 28 -4.9 23.1
14:35 1009 29.8 838 24.75 12.3 54.1 26 -6.5 20.3
14:40 1009 29.8 838 24.75 12.4 54.3 26 -6.5 20.3
14:45 1009 29.8 838 24.75 11.9 53.4 27 -6.7 19.9
14:50 1008 29.77 838 24.75 12.4 54.3 23 -8 17.6
14:55 1008 29.77 838 24.75 12.6 54.7 24 -7.6 18.2
15:00 1008 29.77 837 24.72 13.4 56.1 22 -7.7 18.2
15:05 1008 29.77 837 24.72 14.1 57.4 20 -8.2 17.3
15:10 1008 29.77 837 24.72 14.1 57.3 21 -8 17.6
15:15 1008 29.77 837 24.72 13.5 56.3 22 -8 17.7
15:20 1008 29.77 837 24.72 13.1 55.5 22 -7.9 17.7
15:25 1008 29.77 837 24.72 13 55.5 21 -8.6 16.5
15:30 1008 29.77 837 24.72 13.1 55.5 21 -8.6 16.6
15:35 1008 29.77 837 24.72 13.4 56.1 21 -8.6 16.5
15:40 1008 29.77 837 24.72 13.7 56.6 18 -9.9 14.1
15:45 1008 29.77 837 24.72 14.2 57.5 17 -10.7 12.8
15:50 1008 29.77 837 24.72 14.4 58 17 -10.3 13.5
15:55 1007 29.74 837 24.72 14.6 58.2 15 -11.7 10.9
16:00 1007 29.74 837 24.72 14.5 58.2 15 -11.6 11.2
16:05 1007 29.74 836 24.69 14.5 58.1 16 -11.4 11.5
16:10 1007 29.74 836 24.69 14.4 57.9 16 -10.7 12.7
16:15 1007 29.74 836 24.69 14.4 57.8 18 -9.7 14.5
16:20 1007 29.74 836 24.69 14.3 57.7 18 -9.9 14.1
16:25 1007 29.74 836 24.69 14.2 57.6 19 -8.9 16
16:30 1007 29.74 836 24.69 14 57.2 18 -9.9 14.1
16:35 1007 29.74 836 24.69 13.8 56.8 19 -9.6 14.8
16:40 1007 29.74 836 24.69 13.6 56.4 17 -10.9 12.3
16:45 1007 29.74 836 24.69 13.7 56.7 17 -10.5 13
16:50 1006 29.71 836 24.69 13.6 56.5 18 -10 13.9
16:55 1006 29.71 836 24.69 13.6 56.4 17 -11.1 12.1
17:00 1006 29.71 835 24.66 13.6 56.5 17 -11.3 11.6
17:05 1006 29.71 835 24.66 13.8 56.9 15 -12.4 9.7
17:10 1006 29.71 835 24.66 14 57.2 16 -11.3 11.7
17:15 1006 29.71 835 24.66 13.9 56.9 18 -10.1 13.8
17:20 1006 29.71 835 24.66 13.7 56.7 18 -10.1 13.8
17:25 1006 29.71 835 24.66 13.4 56.1 21 -8.7 16.3
17:30 1006 29.71 835 24.66 12.4 54.4 22 -8.5 16.7
17:35 1006 29.71 835 24.66 11.6 52.9 23 -8.8 16.2
17:40 1006 29.71 835 24.66 11.2 52.2 25 -8.2 17.2
17:45 1006 29.71 835 24.66 11.1 52 22 -9.9 14.2
17:50 1006 29.71 835 24.66 11.8 53.2 19 -11.5 11.3
17:55 1006 29.71 835 24.66 12.6 54.7 16 -12.4 9.6
18:00 1006 29.71 835 24.66 13 55.4 19 -10.3 13.5
18:05 1006 29.71 835 24.66 12.1 53.8 20 -10.5 13.1
18:10 1005 29.68 835 24.66 12.1 53.7 18 -11.5 11.4
18:15 1005 29.68 835 24.66 12.6 54.6 17 -12.1 10.3
18:20 1005 29.68 835 24.66 12.3 54.1 20 -10 14
18:25 1005 29.68 834 24.63 12.1 53.8 17 -12.1 10.3
18:30 1005 29.68 834 24.63 12.1 53.8 17 -12.3 9.8
18:35 1005 29.68 834 24.63 12.3 54.1 18 -11.2 11.9
18:40 1005 29.68 834 24.63 12.3 54.1 18 -11.1 12
18:45 1005 29.68 834 24.63 12.3 54.1 19 -10.4 13.2
18:50 1005 29.68 834 24.63 12 53.7 18 -11.3 11.7
18:55 1005 29.68 834 24.63 12.1 53.8 18 -11.3 11.6
19:00 1005 29.68 834 24.63 12 53.7 19 -11 12.3
19:05 1005 29.68 834 24.63 11.8 53.3 18 -11.7 10.9
19:10 1005 29.68 834 24.63 11.6 52.9 18 -11.7 10.9
19:15 1005 29.68 834 24.63 11.7 53 18 -12 10.4
19:20 1005 29.68 834 24.63 11.7 53.1 19 -11.4 11.4
19:25 1005 29.68 834 24.63 11.5 52.8 19 -11.6 11.2
19:30 1004 29.65 834 24.63 11.5 52.7 18 -11.8 10.8
19:35 1004 29.65 834 24.63 11.3 52.3 19 -11.6 11.2
19:40 1004 29.65 834 24.63 11.2 52.2 19 -11.9 10.5
19:45 1004 29.65 833 24.6 11.3 52.3 18 -12 10.4
19:50 1004 29.65 833 24.6 11.3 52.3 18 -12.1 10.1
19:55 1004 29.65 833 24.6 11.2 52.2 19 -11.9 10.6
20:00 1004 29.65 833 24.6 11.2 52.1 19 -11.9 10.7
20:05 1004 29.65 833 24.6 11.1 51.9 19 -11.5 11.3
20:10 1004 29.65 833 24.6 10.8 51.4 20 -11.2 11.8
20:15 1004 29.65 833 24.6 10.6 51 21 -11 12.2
20:20 1004 29.65 833 24.6 10.3 50.5 22 -10.5 13.1
20:25 1004 29.65 833 24.6 10 49.9 23 -10.1 13.9
20:30 1004 29.65 833 24.6 9.7 49.4 26 -8.9 15.9
20:35 1004 29.65 833 24.6 10 49.9 22 -10.6 12.9
20:40 1003 29.62 833 24.6 11.3 52.3 21 -10.6 13
20:45 1003 29.62 833 24.6 11.4 52.5 21 -10.3 13.5
20:50 1003 29.62 832 24.57 11.6 52.9 20 -10.4 13.3
20:55 1003 29.62 832 24.57 11.7 53.1 21 -9.9 14.1
21:00 1003 29.62 832 24.57 11.7 53 20 -10.5 13
21:05 1003 29.62 832 24.57 11.5 52.7 20 -10.5 13.1
21:10 1003 29.62 832 24.57 11 51.8 22 -10.1 13.8
21:15 1003 29.62 832 24.57 10.6 51.1 22 -10.1 13.8
21:20 1003 29.62 832 24.57 10.4 50.6 23 -10 14
21:25 1003 29.62 832 24.57 10.3 50.5 24 -9.6 14.8
21:30 1003 29.62 832 24.57 10.3 50.5 23 -10.2 13.6
21:35 1003 29.62 832 24.57 10.4 50.7 22 -10.4 13.2
21:40 1003 29.62 832 24.57 10.7 51.2 22 -10.3 13.5
21:45 1003 29.62 832 24.57 10.6 51.1 22 -10.2 13.6
21:50 1003 29.62 832 24.57 10.6 51.1 23 -9.8 14.3
21:55 1003 29.62 832 24.57 10.6 51.1 24 -9.3 15.3
22:00 1003 29.62 832 24.57 10.2 50.4 25 -9.1 15.6
22:05 1003 29.62 832 24.57 9.8 49.6 28 -7.8 17.9
22:10 1003 29.62 832 24.57 8.6 47.4 31 -7.7 18.2
22:15 1003 29.62 832 24.57 7.8 46.1 31 -8.1 17.4
22:20 1003 29.62 832 24.57 7.7 45.8 32 -8.1 17.4
22:25 1003 29.62 832 24.57 7.5 45.6 33 -7.9 17.8
22:30 1003 29.62 832 24.57 7.3 45.1 32 -8.3 17
22:35 1003 29.62 832 24.57 7.3 45.1 31 -8.6 16.5
22:40 1003 29.62 832 24.57 7.6 45.7 30 -8.7 16.3
22:45 1003 29.62 832 24.57 7.8 46 31 -8.3 17.1
22:50 1003 29.62 832 24.57 7.6 45.8 32 -8 17.7
22:55 1003 29.62 832 24.57 7.5 45.5 32 -8.1 17.5
23:00 1003 29.62 832 24.57 7.4 45.3 34 -7.6 18.4
23:05 1003 29.62 832 24.57 6.9 44.5 35 -7.6 18.3
23:10 1003 29.62 833 24.6 6.7 44.1 35 -7.5 18.5
23:15 1003 29.62 833 24.6 6.6 43.9 36 -7.6 18.3
23:20 1003 29.62 833 24.6 6.6 43.9 37 -7 19.4
23:25 1003 29.62 833 24.6 6.2 43.2 41 -5.9 21.3
23:30 1003 29.62 833 24.6 5.6 42.1 43 -6.1 21.1
23:35 1004 29.65 833 24.6 5.7 42.2 41 -6.5 20.2
23:40 1004 29.65 833 24.6 5.8 42.4 42 -6.2 20.9
23:45 1004 29.65 833 24.6 5.6 42.1 44 -5.6 22
23:50 1004 29.65 833 24.6 5.4 41.8 44 -5.9 21.4
23:55 1004 29.65 833 24.6 5.7 42.3 41 -6.6 20.1
24:00 1004 29.65 833 24.6 6.1 43.1 39 -6.9 19.5